AUA50U LIML-LOWW
Flight info
| Callsign | AUA50U |
|---|---|
| Flight time | 0h 56m |
| Altitude | 34000 |
| Route | NESTI DCT ARALD/N0413F330 DCT ABTAN ABTAN2W |
| Aircraft | A320/M-SDE3FGHIRWY/LB1 |
Departure
| Time | 2026-04-24 09:20 |
|---|---|
| Airport | Milano Linate Airport (LIML) |
Arrival
| Time | 2026-04-24 10:17 |
|---|---|
| Airport | Vienna International Airport (LOWW) |
| Time | Latitude | Longitude | Altitude | Speed | Heading |
|---|---|---|---|---|---|
| 2026-04-24 09:07 | 45.45541 | 9.27878 | 361 ft | 0 kts | 270° |
| 2026-04-24 09:16 | 45.45541 | 9.27877 | 361 ft | 0 kts | 270° |
| 2026-04-24 09:17 | 45.45541 | 9.27845 | 362 ft | 4 kts | 269° |
| 2026-04-24 09:17 | 45.45524 | 9.27821 | 363 ft | 3 kts | 206° |
| 2026-04-24 09:17 | 45.45503 | 9.27817 | 361 ft | 3 kts | 185° |
| 2026-04-24 09:18 | 45.45483 | 9.27814 | 360 ft | 3 kts | 185° |
| 2026-04-24 09:18 | 45.45460 | 9.27801 | 365 ft | 6 kts | 216° |
| 2026-04-24 09:18 | 45.45427 | 9.27748 | 360 ft | 11 kts | 220° |
| 2026-04-24 09:18 | 45.45368 | 9.27647 | 364 ft | 8 kts | 237° |
| 2026-04-24 09:19 | 45.45333 | 9.27618 | 358 ft | 5 kts | 177° |
| 2026-04-24 09:19 | 45.45326 | 9.27619 | 358 ft | 0 kts | 173° |
| 2026-04-24 09:20 | 45.45129 | 9.27641 | 357 ft | 71 kts | 175° |
| 2026-04-24 09:20 | 45.44046 | 9.27753 | 470 ft | 146 kts | 176° |
| 2026-04-24 09:20 | 45.43378 | 9.27811 | 946 ft | 146 kts | 177° |
| 2026-04-24 09:20 | 45.42347 | 9.27884 | 1567 ft | 158 kts | 175° |
| 2026-04-24 09:21 | 45.41257 | 9.28481 | 1980 ft | 181 kts | 141° |
| 2026-04-24 09:21 | 45.40506 | 9.30053 | 2477 ft | 208 kts | 111° |
| 2026-04-24 09:21 | 45.39976 | 9.32071 | 3006 ft | 231 kts | 112° |
| 2026-04-24 09:21 | 45.39353 | 9.34332 | 3571 ft | 258 kts | 108° |
| 2026-04-24 09:22 | 45.39202 | 9.36943 | 4449 ft | 273 kts | 79° |
| 2026-04-24 09:22 | 45.39974 | 9.39404 | 5502 ft | 276 kts | 50° |
| 2026-04-24 09:22 | 45.41258 | 9.41440 | 6607 ft | 277 kts | 45° |
| 2026-04-24 09:22 | 45.42612 | 9.43434 | 7626 ft | 282 kts | 43° |
| 2026-04-24 09:23 | 45.43993 | 9.45431 | 8709 ft | 285 kts | 46° |
| 2026-04-24 09:23 | 45.45099 | 9.47803 | 9800 ft | 290 kts | 59° |
| 2026-04-24 09:23 | 45.46079 | 9.50352 | 10622 ft | 301 kts | 59° |
| 2026-04-24 09:23 | 45.47114 | 9.53080 | 11023 ft | 325 kts | 60° |
| 2026-04-24 09:24 | 45.48226 | 9.56027 | 11334 ft | 350 kts | 60° |
| 2026-04-24 09:24 | 45.49395 | 9.59136 | 11688 ft | 369 kts | 60° |
| 2026-04-24 09:24 | 45.50623 | 9.62403 | 12395 ft | 376 kts | 60° |
| 2026-04-24 09:24 | 45.51864 | 9.65711 | 13220 ft | 380 kts | 60° |
| 2026-04-24 09:25 | 45.53114 | 9.69056 | 14058 ft | 383 kts | 61° |
| 2026-04-24 09:25 | 45.54372 | 9.72426 | 14786 ft | 386 kts | 61° |
| 2026-04-24 09:25 | 45.55637 | 9.75807 | 15539 ft | 388 kts | 61° |
| 2026-04-24 09:25 | 45.56918 | 9.79224 | 16294 ft | 391 kts | 61° |
| 2026-04-24 09:26 | 45.58204 | 9.82662 | 17040 ft | 393 kts | 62° |
| 2026-04-24 09:26 | 45.59496 | 9.86119 | 17762 ft | 396 kts | 62° |
| 2026-04-24 09:26 | 45.60796 | 9.89602 | 18465 ft | 399 kts | 62° |
| 2026-04-24 09:26 | 45.62103 | 9.93105 | 19034 ft | 401 kts | 62° |
| 2026-04-24 09:27 | 45.63423 | 9.96641 | 19610 ft | 404 kts | 62° |
| 2026-04-24 09:27 | 45.64748 | 10.00197 | 20176 ft | 406 kts | 62° |
| 2026-04-24 09:27 | 45.66059 | 10.03732 | 20717 ft | 408 kts | 62° |
| 2026-04-24 09:27 | 45.67389 | 10.07338 | 21253 ft | 411 kts | 62° |
| 2026-04-24 09:28 | 45.68725 | 10.10962 | 21758 ft | 413 kts | 62° |
| 2026-04-24 09:28 | 45.70071 | 10.14611 | 22248 ft | 416 kts | 62° |
| 2026-04-24 09:28 | 45.71425 | 10.18281 | 22723 ft | 418 kts | 62° |
| 2026-04-24 09:28 | 45.72791 | 10.21978 | 23197 ft | 421 kts | 62° |
| 2026-04-24 09:29 | 45.74167 | 10.25702 | 23631 ft | 423 kts | 62° |
| 2026-04-24 09:29 | 45.75543 | 10.29441 | 24022 ft | 426 kts | 62° |
| 2026-04-24 09:29 | 45.76924 | 10.33208 | 24392 ft | 427 kts | 62° |
| 2026-04-24 09:29 | 45.78289 | 10.36935 | 24749 ft | 429 kts | 62° |
| 2026-04-24 09:30 | 45.79679 | 10.40732 | 25063 ft | 432 kts | 62° |
| 2026-04-24 09:30 | 45.81055 | 10.44558 | 25412 ft | 433 kts | 63° |
| 2026-04-24 09:30 | 45.82380 | 10.48451 | 25759 ft | 434 kts | 64° |
| 2026-04-24 09:30 | 45.83661 | 10.52384 | 26039 ft | 436 kts | 64° |
| 2026-04-24 09:31 | 45.84921 | 10.56350 | 26332 ft | 438 kts | 65° |
| 2026-04-24 09:31 | 45.86182 | 10.60339 | 26586 ft | 440 kts | 64° |
| 2026-04-24 09:31 | 45.87454 | 10.64333 | 26857 ft | 441 kts | 64° |
| 2026-04-24 09:31 | 45.88744 | 10.68342 | 27119 ft | 443 kts | 64° |
| 2026-04-24 09:32 | 45.90043 | 10.72353 | 27360 ft | 444 kts | 64° |
| 2026-04-24 09:32 | 45.91350 | 10.76378 | 27573 ft | 445 kts | 64° |
| 2026-04-24 09:32 | 45.92660 | 10.80409 | 27772 ft | 446 kts | 64° |
| 2026-04-24 09:32 | 45.93972 | 10.84460 | 28042 ft | 446 kts | 64° |
| 2026-04-24 09:33 | 45.95273 | 10.88500 | 28349 ft | 445 kts | 64° |
| 2026-04-24 09:33 | 45.96569 | 10.92535 | 28651 ft | 444 kts | 64° |
| 2026-04-24 09:33 | 45.97862 | 10.96562 | 28929 ft | 443 kts | 64° |
| 2026-04-24 09:33 | 45.99154 | 11.00589 | 29212 ft | 443 kts | 64° |
| 2026-04-24 09:34 | 46.00442 | 11.04608 | 29502 ft | 442 kts | 64° |
| 2026-04-24 09:34 | 46.01708 | 11.08566 | 29822 ft | 441 kts | 64° |
| 2026-04-24 09:34 | 46.02986 | 11.12568 | 30145 ft | 440 kts | 64° |
| 2026-04-24 09:34 | 46.04260 | 11.16578 | 30429 ft | 439 kts | 64° |
| 2026-04-24 09:35 | 46.05527 | 11.20571 | 30669 ft | 439 kts | 64° |
| 2026-04-24 09:35 | 46.06799 | 11.24570 | 30948 ft | 438 kts | 64° |
| 2026-04-24 09:35 | 46.08066 | 11.28559 | 31219 ft | 437 kts | 64° |
| 2026-04-24 09:35 | 46.09327 | 11.32541 | 31476 ft | 437 kts | 64° |
| 2026-04-24 09:36 | 46.10587 | 11.36527 | 31739 ft | 436 kts | 64° |
| 2026-04-24 09:36 | 46.11844 | 11.40506 | 32004 ft | 436 kts | 64° |
| 2026-04-24 09:36 | 46.13100 | 11.44481 | 32284 ft | 435 kts | 64° |
| 2026-04-24 09:36 | 46.14351 | 11.48450 | 32560 ft | 435 kts | 64° |
| 2026-04-24 09:37 | 46.15598 | 11.52420 | 32838 ft | 434 kts | 64° |
| 2026-04-24 09:37 | 46.16845 | 11.56395 | 33083 ft | 434 kts | 64° |
| 2026-04-24 09:37 | 46.19307 | 11.64265 | 33152 ft | 433 kts | 64° |
| 2026-04-24 09:38 | 46.21773 | 11.72194 | 33152 ft | 432 kts | 64° |
| 2026-04-24 09:38 | 46.24234 | 11.80120 | 33144 ft | 432 kts | 64° |
| 2026-04-24 09:39 | 46.26694 | 11.88037 | 33145 ft | 431 kts | 64° |
| 2026-04-24 09:39 | 46.29148 | 11.95955 | 33140 ft | 431 kts | 64° |
| 2026-04-24 09:40 | 46.31590 | 12.03868 | 33140 ft | 431 kts | 64° |
| 2026-04-24 09:40 | 46.34024 | 12.11799 | 33143 ft | 431 kts | 64° |
| 2026-04-24 09:41 | 46.36433 | 12.19683 | 33128 ft | 430 kts | 64° |
| 2026-04-24 09:41 | 46.38852 | 12.27611 | 33139 ft | 431 kts | 64° |
| 2026-04-24 09:42 | 46.41269 | 12.35539 | 33142 ft | 430 kts | 64° |
| 2026-04-24 09:42 | 46.43682 | 12.43485 | 33142 ft | 431 kts | 64° |
| 2026-04-24 09:43 | 46.46085 | 12.51449 | 33135 ft | 430 kts | 64° |
| 2026-04-24 09:43 | 46.48486 | 12.59408 | 33133 ft | 431 kts | 64° |
| 2026-04-24 09:44 | 46.50882 | 12.67362 | 33124 ft | 430 kts | 64° |
| 2026-04-24 09:44 | 46.53266 | 12.75333 | 33122 ft | 431 kts | 65° |
| 2026-04-24 09:45 | 46.55650 | 12.83339 | 33123 ft | 431 kts | 65° |
| 2026-04-24 09:45 | 46.58020 | 12.91342 | 33118 ft | 431 kts | 65° |
| 2026-04-24 09:46 | 46.60378 | 12.99279 | 33121 ft | 431 kts | 64° |
| 2026-04-24 09:46 | 46.62755 | 13.07282 | 32996 ft | 431 kts | 64° |
| 2026-04-24 09:47 | 46.63940 | 13.11290 | 32841 ft | 431 kts | 65° |
| 2026-04-24 09:47 | 46.65121 | 13.15303 | 32688 ft | 431 kts | 65° |
| 2026-04-24 09:47 | 46.65902 | 13.17967 | 32585 ft | 431 kts | 65° |
| 2026-04-24 09:47 | 46.67081 | 13.21994 | 32427 ft | 432 kts | 65° |
| 2026-04-24 09:48 | 46.68262 | 13.26027 | 32272 ft | 432 kts | 64° |
| 2026-04-24 09:48 | 46.69514 | 13.30006 | 32088 ft | 432 kts | 62° |
| 2026-04-24 09:48 | 46.72289 | 13.37776 | 32128 ft | 433 kts | 60° |
| 2026-04-24 09:49 | 46.75149 | 13.45457 | 32130 ft | 432 kts | 60° |
| 2026-04-24 09:49 | 46.77958 | 13.53234 | 32129 ft | 433 kts | 61° |
| 2026-04-24 09:50 | 46.80707 | 13.61070 | 32134 ft | 433 kts | 61° |
| 2026-04-24 09:50 | 46.83441 | 13.68921 | 32136 ft | 433 kts | 61° |
| 2026-04-24 09:51 | 46.86168 | 13.76701 | 32138 ft | 433 kts | 61° |
| 2026-04-24 09:51 | 46.88921 | 13.84541 | 32138 ft | 433 kts | 61° |
| 2026-04-24 09:52 | 46.91662 | 13.92390 | 31790 ft | 434 kts | 61° |
| 2026-04-24 09:52 | 46.93033 | 13.96327 | 31540 ft | 435 kts | 61° |
| 2026-04-24 09:52 | 46.94408 | 14.00271 | 31291 ft | 436 kts | 61° |
| 2026-04-24 09:53 | 46.95785 | 14.04232 | 31042 ft | 436 kts | 61° |
| 2026-04-24 09:53 | 46.97163 | 14.08206 | 30791 ft | 437 kts | 61° |
| 2026-04-24 09:53 | 46.98542 | 14.12191 | 30557 ft | 438 kts | 61° |
| 2026-04-24 09:53 | 46.99918 | 14.16179 | 30318 ft | 439 kts | 61° |
| 2026-04-24 09:54 | 47.01297 | 14.20184 | 30046 ft | 440 kts | 62° |
| 2026-04-24 09:54 | 47.02678 | 14.24197 | 29770 ft | 441 kts | 62° |
| 2026-04-24 09:54 | 47.04060 | 14.28211 | 29490 ft | 442 kts | 62° |
| 2026-04-24 09:54 | 47.05449 | 14.32243 | 29207 ft | 443 kts | 62° |
| 2026-04-24 09:55 | 47.06840 | 14.36289 | 28929 ft | 445 kts | 62° |
| 2026-04-24 09:55 | 47.08232 | 14.40349 | 28653 ft | 446 kts | 62° |
| 2026-04-24 09:55 | 47.09623 | 14.44424 | 28383 ft | 447 kts | 62° |
| 2026-04-24 09:55 | 47.10978 | 14.48536 | 28108 ft | 449 kts | 65° |
| 2026-04-24 09:56 | 47.11947 | 14.52843 | 27848 ft | 452 kts | 73° |
| 2026-04-24 09:56 | 47.12715 | 14.57325 | 27586 ft | 453 kts | 73° |
| 2026-04-24 09:56 | 47.13488 | 14.61818 | 27324 ft | 454 kts | 73° |
| 2026-04-24 09:56 | 47.14265 | 14.66325 | 27059 ft | 455 kts | 74° |
| 2026-04-24 09:57 | 47.15037 | 14.70834 | 26809 ft | 456 kts | 74° |
| 2026-04-24 09:57 | 47.15810 | 14.75357 | 26557 ft | 457 kts | 74° |
| 2026-04-24 09:57 | 47.16583 | 14.79890 | 26309 ft | 457 kts | 74° |
| 2026-04-24 09:57 | 47.17354 | 14.84424 | 26021 ft | 458 kts | 74° |
| 2026-04-24 09:58 | 47.18125 | 14.88978 | 25655 ft | 460 kts | 74° |
| 2026-04-24 09:58 | 47.18898 | 14.93544 | 25297 ft | 461 kts | 74° |
| 2026-04-24 09:58 | 47.19674 | 14.98124 | 24937 ft | 462 kts | 74° |
| 2026-04-24 09:58 | 47.20451 | 15.02723 | 24585 ft | 464 kts | 75° |
| 2026-04-24 09:59 | 47.21227 | 15.07329 | 24235 ft | 463 kts | 74° |
| 2026-04-24 09:59 | 47.21988 | 15.11857 | 23894 ft | 462 kts | 75° |
| 2026-04-24 09:59 | 47.22756 | 15.16435 | 23527 ft | 460 kts | 75° |
| 2026-04-24 09:59 | 47.23516 | 15.20997 | 23128 ft | 458 kts | 75° |
| 2026-04-24 10:00 | 47.24266 | 15.25534 | 22729 ft | 455 kts | 75° |
| 2026-04-24 10:00 | 47.25014 | 15.30057 | 22330 ft | 453 kts | 74° |
| 2026-04-24 10:00 | 47.25757 | 15.34555 | 21940 ft | 451 kts | 74° |
| 2026-04-24 10:00 | 47.26497 | 15.39042 | 21549 ft | 449 kts | 74° |
| 2026-04-24 10:01 | 47.27232 | 15.43514 | 21169 ft | 447 kts | 74° |
| 2026-04-24 10:01 | 47.27963 | 15.47966 | 20792 ft | 445 kts | 74° |
| 2026-04-24 10:01 | 47.28688 | 15.52396 | 20407 ft | 443 kts | 74° |
| 2026-04-24 10:01 | 47.29397 | 15.56754 | 20038 ft | 441 kts | 74° |
| 2026-04-24 10:02 | 47.30110 | 15.61152 | 19679 ft | 439 kts | 74° |
| 2026-04-24 10:02 | 47.30819 | 15.65521 | 19324 ft | 438 kts | 74° |
| 2026-04-24 10:02 | 47.31525 | 15.69879 | 18977 ft | 436 kts | 74° |
| 2026-04-24 10:02 | 47.32228 | 15.74222 | 18622 ft | 435 kts | 74° |
| 2026-04-24 10:03 | 47.32927 | 15.78552 | 18258 ft | 433 kts | 74° |
| 2026-04-24 10:03 | 47.33619 | 15.82857 | 17797 ft | 431 kts | 74° |
| 2026-04-24 10:03 | 47.34306 | 15.87153 | 17322 ft | 429 kts | 74° |
| 2026-04-24 10:03 | 47.34984 | 15.91419 | 16859 ft | 426 kts | 74° |
| 2026-04-24 10:04 | 47.35877 | 15.95557 | 16402 ft | 421 kts | 64° |
| 2026-04-24 10:04 | 47.37291 | 15.99302 | 15949 ft | 415 kts | 52° |
| 2026-04-24 10:04 | 47.39157 | 16.02514 | 15507 ft | 411 kts | 41° |
| 2026-04-24 10:04 | 47.41385 | 16.05109 | 15068 ft | 406 kts | 31° |
| 2026-04-24 10:05 | 47.43882 | 16.07017 | 14630 ft | 402 kts | 20° |
| 2026-04-24 10:05 | 47.46469 | 16.08338 | 14211 ft | 395 kts | 17° |
| 2026-04-24 10:05 | 47.49068 | 16.09621 | 13836 ft | 382 kts | 17° |
| 2026-04-24 10:05 | 47.51549 | 16.10849 | 13470 ft | 369 kts | 17° |
| 2026-04-24 10:06 | 47.53877 | 16.12133 | 13206 ft | 356 kts | 25° |
| 2026-04-24 10:06 | 47.57521 | 16.16481 | 12664 ft | 314 kts | 40° |
| 2026-04-24 10:06 | 47.59070 | 16.18636 | 12281 ft | 297 kts | 40° |
| 2026-04-24 10:07 | 47.60543 | 16.20687 | 11786 ft | 286 kts | 39° |
| 2026-04-24 10:07 | 47.61987 | 16.22687 | 11202 ft | 283 kts | 39° |
| 2026-04-24 10:07 | 47.63424 | 16.24673 | 10818 ft | 282 kts | 39° |
| 2026-04-24 10:07 | 47.64848 | 16.26648 | 10508 ft | 279 kts | 39° |
| 2026-04-24 10:08 | 47.66264 | 16.28616 | 10171 ft | 278 kts | 39° |
| 2026-04-24 10:08 | 47.67670 | 16.30571 | 9767 ft | 277 kts | 39° |
| 2026-04-24 10:08 | 47.69072 | 16.32522 | 9329 ft | 275 kts | 38° |
| 2026-04-24 10:08 | 47.70533 | 16.34321 | 8893 ft | 271 kts | 33° |
| 2026-04-24 10:09 | 47.72028 | 16.36029 | 8389 ft | 270 kts | 32° |
| 2026-04-24 10:09 | 47.73529 | 16.37701 | 7888 ft | 269 kts | 32° |
| 2026-04-24 10:09 | 47.75021 | 16.39358 | 7406 ft | 268 kts | 32° |
| 2026-04-24 10:09 | 47.76513 | 16.41019 | 7035 ft | 267 kts | 32° |
| 2026-04-24 10:10 | 47.77999 | 16.42681 | 6611 ft | 267 kts | 32° |
| 2026-04-24 10:10 | 47.79474 | 16.44339 | 6187 ft | 265 kts | 32° |
| 2026-04-24 10:10 | 47.80938 | 16.45994 | 5783 ft | 264 kts | 32° |
| 2026-04-24 10:10 | 47.82398 | 16.47647 | 5346 ft | 263 kts | 32° |
| 2026-04-24 10:11 | 47.83856 | 16.49301 | 4948 ft | 263 kts | 32° |
| 2026-04-24 10:11 | 47.85305 | 16.50945 | 4616 ft | 258 kts | 33° |
| 2026-04-24 10:11 | 47.86699 | 16.52535 | 4369 ft | 247 kts | 33° |
| 2026-04-24 10:11 | 47.88052 | 16.53977 | 4167 ft | 232 kts | 27° |
| 2026-04-24 10:12 | 47.89400 | 16.55208 | 3992 ft | 224 kts | 27° |
| 2026-04-24 10:12 | 47.90747 | 16.56388 | 3816 ft | 224 kts | 25° |
| 2026-04-24 10:12 | 47.92090 | 16.57548 | 3655 ft | 221 kts | 25° |
| 2026-04-24 10:12 | 47.93363 | 16.58641 | 3512 ft | 206 kts | 24° |
| 2026-04-24 10:13 | 47.94558 | 16.59638 | 3395 ft | 189 kts | 23° |
| 2026-04-24 10:13 | 47.95688 | 16.60564 | 3216 ft | 182 kts | 22° |
| 2026-04-24 10:13 | 47.96822 | 16.61454 | 2973 ft | 187 kts | 22° |
| 2026-04-24 10:13 | 47.97972 | 16.62346 | 2743 ft | 187 kts | 21° |
| 2026-04-24 10:14 | 47.99194 | 16.62888 | 2527 ft | 181 kts | 1° |
| 2026-04-24 10:14 | 48.00413 | 16.62702 | 2306 ft | 171 kts | 342° |
| 2026-04-24 10:14 | 48.01507 | 16.62239 | 2114 ft | 157 kts | 341° |
| 2026-04-24 10:14 | 48.02521 | 16.61816 | 1865 ft | 146 kts | 341° |
| 2026-04-24 10:15 | 48.03455 | 16.61417 | 1715 ft | 134 kts | 340° |
| 2026-04-24 10:15 | 48.04353 | 16.61035 | 1502 ft | 134 kts | 340° |
| 2026-04-24 10:15 | 48.05240 | 16.60663 | 1363 ft | 130 kts | 341° |
| 2026-04-24 10:15 | 48.06113 | 16.60288 | 1155 ft | 129 kts | 341° |
| 2026-04-24 10:16 | 48.06975 | 16.59927 | 1001 ft | 132 kts | 342° |
| 2026-04-24 10:16 | 48.07845 | 16.59564 | 885 ft | 127 kts | 341° |
| 2026-04-24 10:16 | 48.08676 | 16.59217 | 735 ft | 122 kts | 340° |
| 2026-04-24 10:16 | 48.09469 | 16.58878 | 624 ft | 111 kts | 340° |
| 2026-04-24 10:17 | 48.10088 | 16.58614 | 612 ft | 69 kts | 344° |
| 2026-04-24 10:17 | 48.10416 | 16.58478 | 612 ft | 39 kts | 345° |
| 2026-04-24 10:17 | 48.10640 | 16.58377 | 613 ft | 26 kts | 338° |
| 2026-04-24 10:17 | 48.10775 | 16.58211 | 610 ft | 25 kts | 315° |
| 2026-04-24 10:18 | 48.10895 | 16.58029 | 621 ft | 24 kts | 315° |
| 2026-04-24 10:18 | 48.11043 | 16.57934 | 620 ft | 21 kts | 344° |
| 2026-04-24 10:18 | 48.11139 | 16.57773 | 612 ft | 22 kts | 297° |
| 2026-04-24 10:18 | 48.11205 | 16.57569 | 612 ft | 23 kts | 296° |
| 2026-04-24 10:19 | 48.11271 | 16.57366 | 616 ft | 12 kts | 295° |
| 2026-04-24 10:19 | 48.11322 | 16.57331 | 615 ft | 10 kts | 28° |
| 2026-04-24 10:19 | 48.11391 | 16.57385 | 620 ft | 11 kts | 17° |
| 2026-04-24 10:19 | 48.11450 | 16.57313 | 618 ft | 13 kts | 295° |
| 2026-04-24 10:20 | 48.11486 | 16.57195 | 610 ft | 9 kts | 283° |
| 2026-04-24 10:20 | 48.11447 | 16.57142 | 612 ft | 6 kts | 203° |
| 2026-04-24 10:20 | 48.11426 | 16.57129 | 610 ft | 1 kts | 203° |
| 2026-04-24 10:20 | 48.11425 | 16.57129 | 610 ft | 0 kts | 203° |